sensor_id;sensor_type;location;lat;lon;timestamp;P1;durP1;ratioP1;P2;durP2;ratioP2
12224;SDS011;6175;50.956;11.064;2023-10-08T00:01:07;5.63;;;3.58;;
12224;SDS011;6175;50.956;11.064;2023-10-08T00:03:37;8.13;;;3.95;;
12224;SDS011;6175;50.956;11.064;2023-10-08T00:06:06;6.38;;;3.83;;
12224;SDS011;6175;50.956;11.064;2023-10-08T00:08:38;8.43;;;4.10;;
12224;SDS011;6175;50.956;11.064;2023-10-08T00:11:05;8.45;;;4.13;;
12224;SDS011;6175;50.956;11.064;2023-10-08T00:13:36;6.63;;;4.13;;
12224;SDS011;6175;50.956;11.064;2023-10-08T00:16:06;4.85;;;3.75;;
12224;SDS011;6175;50.956;11.064;2023-10-08T00:18:36;5.38;;;3.65;;
12224;SDS011;6175;50.956;11.064;2023-10-08T00:21:05;7.93;;;3.83;;
12224;SDS011;6175;50.956;11.064;2023-10-08T00:23:42;7.82;;;4.57;;
12224;SDS011;6175;50.956;11.064;2023-10-08T00:26:17;5.43;;;3.95;;
12224;SDS011;6175;50.956;11.064;2023-10-08T00:28:54;5.68;;;4.10;;
12224;SDS011;6175;50.956;11.064;2023-10-08T00:31:22;6.85;;;4.22;;
12224;SDS011;6175;50.956;11.064;2023-10-08T00:33:55;5.57;;;4.00;;
12224;SDS011;6175;50.956;11.064;2023-10-08T00:36:22;6.70;;;4.10;;
12224;SDS011;6175;50.956;11.064;2023-10-08T00:38:50;5.70;;;3.67;;
12224;SDS011;6175;50.956;11.064;2023-10-08T00:41:19;5.30;;;3.88;;
12224;SDS011;6175;50.956;11.064;2023-10-08T00:43:47;7.68;;;4.05;;
12224;SDS011;6175;50.956;11.064;2023-10-08T00:46:17;6.55;;;3.47;;
12224;SDS011;6175;50.956;11.064;2023-10-08T00:48:48;5.50;;;3.25;;
12224;SDS011;6175;50.956;11.064;2023-10-08T00:51:17;6.05;;;3.90;;
12224;SDS011;6175;50.956;11.064;2023-10-08T00:53:52;5.45;;;3.75;;
12224;SDS011;6175;50.956;11.064;2023-10-08T00:56:24;4.85;;;3.65;;
12224;SDS011;6175;50.956;11.064;2023-10-08T00:59:09;8.27;;;3.95;;
12224;SDS011;6175;50.956;11.064;2023-10-08T01:01:39;5.60;;;3.50;;
12224;SDS011;6175;50.956;11.064;2023-10-08T01:04:10;4.97;;;3.40;;
12224;SDS011;6175;50.956;11.064;2023-10-08T01:06:41;5.97;;;3.45;;
12224;SDS011;6175;50.956;11.064;2023-10-08T01:09:08;6.68;;;3.78;;
12224;SDS011;6175;50.956;11.064;2023-10-08T01:11:43;4.53;;;3.40;;
12224;SDS011;6175;50.956;11.064;2023-10-08T01:14:14;5.43;;;3.80;;
12224;SDS011;6175;50.956;11.064;2023-10-08T01:16:47;4.22;;;3.65;;
12224;SDS011;6175;50.956;11.064;2023-10-08T01:19:17;7.00;;;4.18;;
12224;SDS011;6175;50.956;11.064;2023-10-08T01:21:45;6.00;;;4.07;;
12224;SDS011;6175;50.956;11.064;2023-10-08T01:24:14;5.72;;;3.70;;
12224;SDS011;6175;50.956;11.064;2023-10-08T01:26:43;4.95;;;3.30;;
12224;SDS011;6175;50.956;11.064;2023-10-08T01:29:10;4.75;;;3.35;;
12224;SDS011;6175;50.956;11.064;2023-10-08T01:31:44;7.53;;;4.15;;
12224;SDS011;6175;50.956;11.064;2023-10-08T01:34:11;4.90;;;3.35;;
12224;SDS011;6175;50.956;11.064;2023-10-08T01:36:43;9.75;;;4.07;;
12224;SDS011;6175;50.956;11.064;2023-10-08T01:39:10;5.60;;;3.80;;
12224;SDS011;6175;50.956;11.064;2023-10-08T01:41:44;9.57;;;3.70;;
12224;SDS011;6175;50.956;11.064;2023-10-08T01:44:12;4.65;;;3.50;;
12224;SDS011;6175;50.956;11.064;2023-10-08T01:46:39;6.55;;;3.95;;
12224;SDS011;6175;50.956;11.064;2023-10-08T01:49:06;7.22;;;4.05;;
12224;SDS011;6175;50.956;11.064;2023-10-08T01:51:39;7.03;;;3.97;;
12224;SDS011;6175;50.956;11.064;2023-10-08T01:54:11;6.68;;;3.88;;
12224;SDS011;6175;50.956;11.064;2023-10-08T01:56:40;6.47;;;3.63;;
12224;SDS011;6175;50.956;11.064;2023-10-08T01:59:09;6.25;;;3.88;;
12224;SDS011;6175;50.956;11.064;2023-10-08T02:01:39;6.25;;;3.65;;
12224;SDS011;6175;50.956;11.064;2023-10-08T02:04:06;6.47;;;3.80;;
12224;SDS011;6175;50.956;11.064;2023-10-08T02:06:34;6.78;;;3.97;;
12224;SDS011;6175;50.956;11.064;2023-10-08T02:09:02;6.35;;;3.78;;
12224;SDS011;6175;50.956;11.064;2023-10-08T02:11:40;5.55;;;3.78;;
12224;SDS011;6175;50.956;11.064;2023-10-08T02:14:10;8.60;;;3.83;;
12224;SDS011;6175;50.956;11.064;2023-10-08T02:16:40;6.40;;;4.03;;
12224;SDS011;6175;50.956;11.064;2023-10-08T02:19:07;5.78;;;4.18;;
12224;SDS011;6175;50.956;11.064;2023-10-08T02:21:36;7.22;;;4.28;;
12224;SDS011;6175;50.956;11.064;2023-10-08T02:24:07;6.78;;;3.42;;
12224;SDS011;6175;50.956;11.064;2023-10-08T02:26:36;6.65;;;4.15;;
12224;SDS011;6175;50.956;11.064;2023-10-08T02:29:02;5.13;;;3.90;;
12224;SDS011;6175;50.956;11.064;2023-10-08T02:31:36;8.70;;;4.13;;
12224;SDS011;6175;50.956;11.064;2023-10-08T02:34:04;10.60;;;4.68;;
12224;SDS011;6175;50.956;11.064;2023-10-08T02:36:33;5.20;;;3.53;;
12224;SDS011;6175;50.956;11.064;2023-10-08T02:39:02;6.90;;;3.50;;
12224;SDS011;6175;50.956;11.064;2023-10-08T02:41:31;6.30;;;4.35;;
12224;SDS011;6175;50.956;11.064;2023-10-08T02:43:58;6.82;;;3.40;;
12224;SDS011;6175;50.956;11.064;2023-10-08T02:46:25;9.20;;;4.22;;
12224;SDS011;6175;50.956;11.064;2023-10-08T02:48:57;5.72;;;3.88;;
12224;SDS011;6175;50.956;11.064;2023-10-08T02:51:28;7.32;;;3.90;;
12224;SDS011;6175;50.956;11.064;2023-10-08T02:53:55;7.60;;;3.95;;
12224;SDS011;6175;50.956;11.064;2023-10-08T02:56:23;5.63;;;3.75;;
12224;SDS011;6175;50.956;11.064;2023-10-08T02:58:50;6.15;;;4.10;;
12224;SDS011;6175;50.956;11.064;2023-10-08T03:01:17;5.88;;;3.80;;
12224;SDS011;6175;50.956;11.064;2023-10-08T03:03:44;9.02;;;4.15;;
12224;SDS011;6175;50.956;11.064;2023-10-08T03:06:14;6.15;;;3.97;;
12224;SDS011;6175;50.956;11.064;2023-10-08T03:08:43;6.85;;;3.53;;
12224;SDS011;6175;50.956;11.064;2023-10-08T03:11:12;5.47;;;3.88;;
12224;SDS011;6175;50.956;11.064;2023-10-08T03:13:45;6.35;;;3.42;;
12224;SDS011;6175;50.956;11.064;2023-10-08T03:16:16;6.38;;;4.10;;
12224;SDS011;6175;50.956;11.064;2023-10-08T03:18:52;5.28;;;3.58;;
12224;SDS011;6175;50.956;11.064;2023-10-08T03:21:23;7.78;;;4.15;;
12224;SDS011;6175;50.956;11.064;2023-10-08T03:24:13;9.05;;;4.88;;
12224;SDS011;6175;50.956;11.064;2023-10-08T03:26:55;5.57;;;3.90;;
12224;SDS011;6175;50.956;11.064;2023-10-08T03:29:31;6.20;;;3.78;;
12224;SDS011;6175;50.956;11.064;2023-10-08T03:31:58;11.02;;;4.50;;
12224;SDS011;6175;50.956;11.064;2023-10-08T03:34:31;5.20;;;3.70;;
12224;SDS011;6175;50.956;11.064;2023-10-08T03:37:00;7.28;;;4.40;;
12224;SDS011;6175;50.956;11.064;2023-10-08T03:39:31;5.55;;;3.80;;
12224;SDS011;6175;50.956;11.064;2023-10-08T03:42:12;8.18;;;4.55;;
12224;SDS011;6175;50.956;11.064;2023-10-08T03:44:45;7.60;;;3.97;;
12224;SDS011;6175;50.956;11.064;2023-10-08T03:47:16;7.72;;;3.70;;
12224;SDS011;6175;50.956;11.064;2023-10-08T03:49:44;6.90;;;4.53;;
12224;SDS011;6175;50.956;11.064;2023-10-08T03:52:12;5.97;;;4.05;;
12224;SDS011;6175;50.956;11.064;2023-10-08T03:54:40;8.70;;;4.25;;
12224;SDS011;6175;50.956;11.064;2023-10-08T03:57:13;8.48;;;4.25;;
12224;SDS011;6175;50.956;11.064;2023-10-08T04:00:01;7.07;;;4.40;;
12224;SDS011;6175;50.956;11.064;2023-10-08T04:02:35;10.77;;;4.85;;
12224;SDS011;6175;50.956;11.064;2023-10-08T04:05:06;7.40;;;4.05;;
12224;SDS011;6175;50.956;11.064;2023-10-08T04:07:46;7.30;;;4.43;;
12224;SDS011;6175;50.956;11.064;2023-10-08T04:10:42;8.75;;;4.60;;
12224;SDS011;6175;50.956;11.064;2023-10-08T04:13:31;5.13;;;4.03;;
12224;SDS011;6175;50.956;11.064;2023-10-08T04:15:58;12.88;;;4.78;;
12224;SDS011;6175;50.956;11.064;2023-10-08T04:18:29;6.78;;;4.53;;
12224;SDS011;6175;50.956;11.064;2023-10-08T04:20:57;4.13;;;2.28;;
12224;SDS011;6175;50.956;11.064;2023-10-08T04:23:31;2.30;;;1.65;;
12224;SDS011;6175;50.956;11.064;2023-10-08T04:25:58;2.90;;;1.27;;
12224;SDS011;6175;50.956;11.064;2023-10-08T04:28:25;1.50;;;1.15;;
12224;SDS011;6175;50.956;11.064;2023-10-08T04:31:00;1.60;;;1.05;;
12224;SDS011;6175;50.956;11.064;2023-10-08T04:33:39;0.73;;;0.70;;
12224;SDS011;6175;50.956;11.064;2023-10-08T04:36:07;0.88;;;0.88;;
12224;SDS011;6175;50.956;11.064;2023-10-08T04:38:35;0.52;;;0.52;;
12224;SDS011;6175;50.956;11.064;2023-10-08T04:41:05;0.70;;;0.60;;
12224;SDS011;6175;50.956;11.064;2023-10-08T04:43:35;0.93;;;0.50;;
12224;SDS011;6175;50.956;11.064;2023-10-08T04:46:04;0.70;;;0.50;;
12224;SDS011;6175;50.956;11.064;2023-10-08T04:48:44;0.38;;;0.30;;
12224;SDS011;6175;50.956;11.064;2023-10-08T04:51:11;1.27;;;0.77;;
12224;SDS011;6175;50.956;11.064;2023-10-08T04:53:40;1.13;;;0.70;;
12224;SDS011;6175;50.956;11.064;2023-10-08T04:56:09;0.60;;;0.50;;
12224;SDS011;6175;50.956;11.064;2023-10-08T04:58:42;0.32;;;0.32;;
12224;SDS011;6175;50.956;11.064;2023-10-08T05:01:13;0.43;;;0.32;;
12224;SDS011;6175;50.956;11.064;2023-10-08T05:03:54;1.25;;;0.40;;
12224;SDS011;6175;50.956;11.064;2023-10-08T05:06:48;0.30;;;0.30;;
12224;SDS011;6175;50.956;11.064;2023-10-08T05:12:38;0.30;;;0.30;;
12224;SDS011;6175;50.956;11.064;2023-10-08T05:15:11;1.02;;;0.55;;
12224;SDS011;6175;50.956;11.064;2023-10-08T05:17:58;0.30;;;0.30;;
12224;SDS011;6175;50.956;11.064;2023-10-08T05:20:38;0.32;;;0.32;;
12224;SDS011;6175;50.956;11.064;2023-10-08T05:23:24;0.50;;;0.50;;
12224;SDS011;6175;50.956;11.064;2023-10-08T05:26:09;0.57;;;0.57;;
12224;SDS011;6175;50.956;11.064;2023-10-08T05:28:49;0.20;;;0.20;;
12224;SDS011;6175;50.956;11.064;2023-10-08T05:31:26;0.30;;;0.30;;
12224;SDS011;6175;50.956;11.064;2023-10-08T05:34:15;0.30;;;0.30;;
12224;SDS011;6175;50.956;11.064;2023-10-08T05:36:47;0.25;;;0.25;;
12224;SDS011;6175;50.956;11.064;2023-10-08T05:39:32;0.75;;;0.45;;
12224;SDS011;6175;50.956;11.064;2023-10-08T05:42:07;0.40;;;0.40;;
12224;SDS011;6175;50.956;11.064;2023-10-08T05:44:40;0.30;;;0.30;;
12224;SDS011;6175;50.956;11.064;2023-10-08T05:47:32;0.20;;;0.20;;
12224;SDS011;6175;50.956;11.064;2023-10-08T05:50:06;0.20;;;0.20;;
12224;SDS011;6175;50.956;11.064;2023-10-08T05:52:50;0.40;;;0.40;;
12224;SDS011;6175;50.956;11.064;2023-10-08T05:55:28;0.30;;;0.30;;
12224;SDS011;6175;50.956;11.064;2023-10-08T05:58:00;0.25;;;0.25;;
12224;SDS011;6175;50.956;11.064;2023-10-08T06:00:51;0.20;;;0.20;;
12224;SDS011;6175;50.956;11.064;2023-10-08T06:03:51;0.20;;;0.20;;
12224;SDS011;6175;50.956;11.064;2023-10-08T06:06:36;0.20;;;0.20;;
12224;SDS011;6175;50.956;11.064;2023-10-08T06:09:12;0.30;;;0.30;;
12224;SDS011;6175;50.956;11.064;2023-10-08T06:11:48;0.20;;;0.20;;
12224;SDS011;6175;50.956;11.064;2023-10-08T06:14:38;0.20;;;0.20;;
12224;SDS011;6175;50.956;11.064;2023-10-08T06:17:33;0.20;;;0.20;;
12224;SDS011;6175;50.956;11.064;2023-10-08T06:20:10;0.30;;;0.30;;
12224;SDS011;6175;50.956;11.064;2023-10-08T06:22:41;0.57;;;0.30;;
12224;SDS011;6175;50.956;11.064;2023-10-08T06:25:09;0.20;;;0.20;;
12224;SDS011;6175;50.956;11.064;2023-10-08T06:27:44;0.30;;;0.30;;
12224;SDS011;6175;50.956;11.064;2023-10-08T06:30:11;0.28;;;0.28;;
12224;SDS011;6175;50.956;11.064;2023-10-08T06:32:43;0.40;;;0.40;;
12224;SDS011;6175;50.956;11.064;2023-10-08T06:35:11;0.30;;;0.30;;
12224;SDS011;6175;50.956;11.064;2023-10-08T06:37:42;0.22;;;0.22;;
12224;SDS011;6175;50.956;11.064;2023-10-08T06:40:10;0.60;;;0.20;;
12224;SDS011;6175;50.956;11.064;2023-10-08T06:42:58;0.35;;;0.35;;
12224;SDS011;6175;50.956;11.064;2023-10-08T06:45:28;0.47;;;0.35;;
12224;SDS011;6175;50.956;11.064;2023-10-08T06:47:59;0.20;;;0.20;;
12224;SDS011;6175;50.956;11.064;2023-10-08T06:50:31;0.38;;;0.38;;
12224;SDS011;6175;50.956;11.064;2023-10-08T06:53:00;0.40;;;0.38;;
12224;SDS011;6175;50.956;11.064;2023-10-08T06:55:31;0.47;;;0.43;;
12224;SDS011;6175;50.956;11.064;2023-10-08T06:57:59;0.30;;;0.30;;
12224;SDS011;6175;50.956;11.064;2023-10-08T07:00:27;0.20;;;0.20;;
12224;SDS011;6175;50.956;11.064;2023-10-08T07:03:06;0.50;;;0.50;;
12224;SDS011;6175;50.956;11.064;2023-10-08T07:05:35;0.22;;;0.22;;
12224;SDS011;6175;50.956;11.064;2023-10-08T07:08:08;0.25;;;0.25;;
12224;SDS011;6175;50.956;11.064;2023-10-08T07:10:38;0.38;;;0.38;;
12224;SDS011;6175;50.956;11.064;2023-10-08T07:13:07;0.40;;;0.40;;
12224;SDS011;6175;50.956;11.064;2023-10-08T07:15:34;1.08;;;0.52;;
12224;SDS011;6175;50.956;11.064;2023-10-08T07:18:04;0.80;;;0.30;;
12224;SDS011;6175;50.956;11.064;2023-10-08T07:20:39;0.70;;;0.40;;
12224;SDS011;6175;50.956;11.064;2023-10-08T07:23:07;0.50;;;0.40;;
12224;SDS011;6175;50.956;11.064;2023-10-08T07:25:51;0.85;;;0.70;;
12224;SDS011;6175;50.956;11.064;2023-10-08T07:28:22;1.35;;;0.80;;
12224;SDS011;6175;50.956;11.064;2023-10-08T07:30:50;1.10;;;0.80;;
12224;SDS011;6175;50.956;11.064;2023-10-08T07:33:18;0.85;;;0.70;;
12224;SDS011;6175;50.956;11.064;2023-10-08T07:35:51;1.70;;;0.95;;
12224;SDS011;6175;50.956;11.064;2023-10-08T07:38:22;1.42;;;1.20;;
12224;SDS011;6175;50.956;11.064;2023-10-08T07:40:52;1.02;;;0.80;;
12224;SDS011;6175;50.956;11.064;2023-10-08T07:43:20;2.25;;;0.95;;
12224;SDS011;6175;50.956;11.064;2023-10-08T07:45:47;1.40;;;0.90;;
12224;SDS011;6175;50.956;11.064;2023-10-08T07:48:14;1.38;;;0.88;;
12224;SDS011;6175;50.956;11.064;2023-10-08T07:50:42;3.30;;;1.10;;
12224;SDS011;6175;50.956;11.064;2023-10-08T07:53:11;1.50;;;1.02;;
12224;SDS011;6175;50.956;11.064;2023-10-08T07:55:46;1.42;;;0.75;;
12224;SDS011;6175;50.956;11.064;2023-10-08T07:58:14;1.10;;;1.00;;
12224;SDS011;6175;50.956;11.064;2023-10-08T08:00:42;3.53;;;1.40;;
12224;SDS011;6175;50.956;11.064;2023-10-08T08:03:17;1.02;;;0.80;;
12224;SDS011;6175;50.956;11.064;2023-10-08T08:05:47;1.20;;;1.10;;
12224;SDS011;6175;50.956;11.064;2023-10-08T08:08:19;2.10;;;0.93;;
12224;SDS011;6175;50.956;11.064;2023-10-08T08:10:48;1.45;;;1.17;;
12224;SDS011;6175;50.956;11.064;2023-10-08T08:13:22;1.00;;;0.90;;
12224;SDS011;6175;50.956;11.064;2023-10-08T08:15:52;1.70;;;1.25;;
12224;SDS011;6175;50.956;11.064;2023-10-08T08:18:23;1.00;;;0.90;;
12224;SDS011;6175;50.956;11.064;2023-10-08T08:20:50;1.98;;;1.20;;
12224;SDS011;6175;50.956;11.064;2023-10-08T08:23:19;1.20;;;1.10;;
12224;SDS011;6175;50.956;11.064;2023-10-08T08:25:47;1.60;;;1.00;;
12224;SDS011;6175;50.956;11.064;2023-10-08T08:28:31;2.03;;;1.58;;
12224;SDS011;6175;50.956;11.064;2023-10-08T08:31:01;1.50;;;1.08;;
12224;SDS011;6175;50.956;11.064;2023-10-08T08:33:29;1.40;;;1.20;;
12224;SDS011;6175;50.956;11.064;2023-10-08T08:36:16;1.45;;;1.10;;
12224;SDS011;6175;50.956;11.064;2023-10-08T08:38:45;1.60;;;1.13;;
12224;SDS011;6175;50.956;11.064;2023-10-08T08:41:12;4.53;;;1.60;;
12224;SDS011;6175;50.956;11.064;2023-10-08T08:43:43;2.03;;;1.10;;
12224;SDS011;6175;50.956;11.064;2023-10-08T08:46:11;1.23;;;1.13;;
12224;SDS011;6175;50.956;11.064;2023-10-08T08:48:39;1.20;;;1.02;;
12224;SDS011;6175;50.956;11.064;2023-10-08T08:51:06;1.23;;;1.00;;
12224;SDS011;6175;50.956;11.064;2023-10-08T08:53:34;1.20;;;1.10;;
12224;SDS011;6175;50.956;11.064;2023-10-08T08:56:03;1.45;;;1.27;;
12224;SDS011;6175;50.956;11.064;2023-10-08T08:58:34;1.55;;;1.10;;
12224;SDS011;6175;50.956;11.064;2023-10-08T09:01:01;1.60;;;1.27;;
12224;SDS011;6175;50.956;11.064;2023-10-08T09:03:30;1.40;;;1.17;;
12224;SDS011;6175;50.956;11.064;2023-10-08T09:05:57;1.10;;;1.00;;
12224;SDS011;6175;50.956;11.064;2023-10-08T09:08:27;1.85;;;1.25;;
12224;SDS011;6175;50.956;11.064;2023-10-08T09:10:57;0.80;;;0.77;;
12224;SDS011;6175;50.956;11.064;2023-10-08T09:13:27;1.52;;;1.40;;
12224;SDS011;6175;50.956;11.064;2023-10-08T09:16:02;1.52;;;1.08;;
12224;SDS011;6175;50.956;11.064;2023-10-08T09:18:32;2.25;;;1.25;;
12224;SDS011;6175;50.956;11.064;2023-10-08T09:21:13;2.65;;;1.30;;
12224;SDS011;6175;50.956;11.064;2023-10-08T09:23:44;1.30;;;0.98;;
12224;SDS011;6175;50.956;11.064;2023-10-08T09:26:12;1.60;;;1.15;;
12224;SDS011;6175;50.956;11.064;2023-10-08T09:28:44;1.75;;;1.27;;
12224;SDS011;6175;50.956;11.064;2023-10-08T09:31:13;1.27;;;1.02;;
12224;SDS011;6175;50.956;11.064;2023-10-08T09:33:42;1.40;;;1.20;;
12224;SDS011;6175;50.956;11.064;2023-10-08T09:36:10;1.30;;;1.17;;
12224;SDS011;6175;50.956;11.064;2023-10-08T09:38:44;1.73;;;1.38;;
12224;SDS011;6175;50.956;11.064;2023-10-08T09:41:13;1.50;;;1.13;;
12224;SDS011;6175;50.956;11.064;2023-10-08T09:43:42;1.27;;;1.08;;
12224;SDS011;6175;50.956;11.064;2023-10-08T09:46:13;1.33;;;1.23;;
12224;SDS011;6175;50.956;11.064;2023-10-08T09:48:41;2.05;;;1.83;;
12224;SDS011;6175;50.956;11.064;2023-10-08T09:51:11;2.20;;;1.40;;
12224;SDS011;6175;50.956;11.064;2023-10-08T09:53:42;1.63;;;1.33;;
12224;SDS011;6175;50.956;11.064;2023-10-08T09:56:12;2.42;;;1.70;;
12224;SDS011;6175;50.956;11.064;2023-10-08T09:58:41;1.80;;;1.70;;
12224;SDS011;6175;50.956;11.064;2023-10-08T10:01:09;2.22;;;1.65;;
12224;SDS011;6175;50.956;11.064;2023-10-08T10:03:37;2.00;;;1.65;;
12224;SDS011;6175;50.956;11.064;2023-10-08T10:06:11;1.75;;;1.50;;
12224;SDS011;6175;50.956;11.064;2023-10-08T10:08:39;1.20;;;1.10;;
12224;SDS011;6175;50.956;11.064;2023-10-08T10:11:07;1.48;;;1.38;;
12224;SDS011;6175;50.956;11.064;2023-10-08T10:13:38;2.50;;;1.48;;
12224;SDS011;6175;50.956;11.064;2023-10-08T10:16:07;2.85;;;1.38;;
12224;SDS011;6175;50.956;11.064;2023-10-08T10:18:34;1.92;;;1.45;;
12224;SDS011;6175;50.956;11.064;2023-10-08T10:23:44;2.58;;;1.38;;
12224;SDS011;6175;50.956;11.064;2023-10-08T10:26:21;1.08;;;1.00;;
12224;SDS011;6175;50.956;11.064;2023-10-08T10:31:53;1.23;;;1.13;;
12224;SDS011;6175;50.956;11.064;2023-10-08T10:34:23;2.08;;;1.85;;
12224;SDS011;6175;50.956;11.064;2023-10-08T10:36:52;2.05;;;1.35;;
12224;SDS011;6175;50.956;11.064;2023-10-08T10:39:24;1.83;;;1.40;;
12224;SDS011;6175;50.956;11.064;2023-10-08T10:41:57;1.70;;;1.20;;
12224;SDS011;6175;50.956;11.064;2023-10-08T10:44:26;1.95;;;1.20;;
12224;SDS011;6175;50.956;11.064;2023-10-08T10:46:56;1.48;;;1.10;;
12224;SDS011;6175;50.956;11.064;2023-10-08T10:49:41;2.33;;;1.27;;
12224;SDS011;6175;50.956;11.064;2023-10-08T10:52:17;1.92;;;1.40;;
12224;SDS011;6175;50.956;11.064;2023-10-08T10:54:56;1.30;;;1.20;;
12224;SDS011;6175;50.956;11.064;2023-10-08T10:57:43;1.80;;;1.48;;
12224;SDS011;6175;50.956;11.064;2023-10-08T11:00:19;2.92;;;1.52;;
12224;SDS011;6175;50.956;11.064;2023-10-08T11:03:13;2.05;;;1.40;;
12224;SDS011;6175;50.956;11.064;2023-10-08T11:05:43;1.75;;;1.40;;
12224;SDS011;6175;50.956;11.064;2023-10-08T11:08:16;1.98;;;1.33;;
12224;SDS011;6175;50.956;11.064;2023-10-08T11:10:44;3.33;;;1.27;;
12224;SDS011;6175;50.956;11.064;2023-10-08T11:13:16;1.52;;;1.17;;
12224;SDS011;6175;50.956;11.064;2023-10-08T11:15:43;2.35;;;1.63;;
12224;SDS011;6175;50.956;11.064;2023-10-08T11:18:16;2.72;;;2.10;;
12224;SDS011;6175;50.956;11.064;2023-10-08T11:20:44;2.05;;;1.50;;
12224;SDS011;6175;50.956;11.064;2023-10-08T11:23:11;2.17;;;1.98;;
12224;SDS011;6175;50.956;11.064;2023-10-08T11:25:53;2.00;;;1.90;;
12224;SDS011;6175;50.956;11.064;2023-10-08T11:28:20;1.75;;;1.42;;
12224;SDS011;6175;50.956;11.064;2023-10-08T11:30:51;1.60;;;1.48;;
12224;SDS011;6175;50.956;11.064;2023-10-08T11:33:19;2.70;;;1.38;;
12224;SDS011;6175;50.956;11.064;2023-10-08T11:35:57;2.47;;;1.13;;
12224;SDS011;6175;50.956;11.064;2023-10-08T11:38:27;4.03;;;2.00;;
12224;SDS011;6175;50.956;11.064;2023-10-08T11:40:54;1.30;;;1.20;;
12224;SDS011;6175;50.956;11.064;2023-10-08T11:43:22;1.33;;;1.10;;
12224;SDS011;6175;50.956;11.064;2023-10-08T11:45:50;1.65;;;1.33;;
12224;SDS011;6175;50.956;11.064;2023-10-08T11:48:17;1.60;;;1.10;;
12224;SDS011;6175;50.956;11.064;2023-10-08T11:50:52;1.42;;;1.27;;
12224;SDS011;6175;50.956;11.064;2023-10-08T11:53:22;2.40;;;1.40;;
12224;SDS011;6175;50.956;11.064;2023-10-08T11:55:49;1.23;;;1.10;;
12224;SDS011;6175;50.956;11.064;2023-10-08T11:58:21;2.20;;;1.40;;
12224;SDS011;6175;50.956;11.064;2023-10-08T12:01:02;1.23;;;1.13;;
12224;SDS011;6175;50.956;11.064;2023-10-08T12:03:29;1.20;;;1.08;;
12224;SDS011;6175;50.956;11.064;2023-10-08T12:05:59;1.63;;;1.23;;
12224;SDS011;6175;50.956;11.064;2023-10-08T12:08:26;1.33;;;1.05;;
12224;SDS011;6175;50.956;11.064;2023-10-08T12:10:54;2.13;;;1.08;;
12224;SDS011;6175;50.956;11.064;2023-10-08T12:13:25;1.48;;;1.30;;
12224;SDS011;6175;50.956;11.064;2023-10-08T12:15:53;1.00;;;1.00;;
12224;SDS011;6175;50.956;11.064;2023-10-08T12:18:31;1.35;;;1.20;;
12224;SDS011;6175;50.956;11.064;2023-10-08T12:21:05;1.50;;;1.40;;
12224;SDS011;6175;50.956;11.064;2023-10-08T12:23:35;1.50;;;1.20;;
12224;SDS011;6175;50.956;11.064;2023-10-08T12:26:03;2.05;;;1.20;;
12224;SDS011;6175;50.956;11.064;2023-10-08T12:28:33;2.58;;;1.20;;
12224;SDS011;6175;50.956;11.064;2023-10-08T12:31:01;1.63;;;1.00;;
12224;SDS011;6175;50.956;11.064;2023-10-08T12:33:29;1.83;;;1.38;;
12224;SDS011;6175;50.956;11.064;2023-10-08T12:35:57;1.13;;;1.02;;
12224;SDS011;6175;50.956;11.064;2023-10-08T12:38:37;1.45;;;1.23;;
12224;SDS011;6175;50.956;11.064;2023-10-08T12:41:06;1.55;;;1.20;;
12224;SDS011;6175;50.956;11.064;2023-10-08T12:43:38;1.75;;;1.30;;
12224;SDS011;6175;50.956;11.064;2023-10-08T12:46:07;1.42;;;1.30;;
12224;SDS011;6175;50.956;11.064;2023-10-08T12:48:43;1.80;;;1.20;;
12224;SDS011;6175;50.956;11.064;2023-10-08T12:51:12;1.20;;;0.98;;
12224;SDS011;6175;50.956;11.064;2023-10-08T12:53:41;1.33;;;1.20;;
12224;SDS011;6175;50.956;11.064;2023-10-08T12:56:16;2.20;;;1.25;;
12224;SDS011;6175;50.956;11.064;2023-10-08T12:58:47;1.65;;;1.38;;
12224;SDS011;6175;50.956;11.064;2023-10-08T13:01:23;2.08;;;1.88;;
12224;SDS011;6175;50.956;11.064;2023-10-08T13:03:54;3.03;;;2.05;;
12224;SDS011;6175;50.956;11.064;2023-10-08T13:06:26;7.55;;;5.00;;
12224;SDS011;6175;50.956;11.064;2023-10-08T13:08:57;5.55;;;4.28;;
12224;SDS011;6175;50.956;11.064;2023-10-08T13:11:24;7.07;;;4.93;;
12224;SDS011;6175;50.956;11.064;2023-10-08T13:13:54;3.67;;;2.50;;
12224;SDS011;6175;50.956;11.064;2023-10-08T13:16:22;12.43;;;9.98;;
12224;SDS011;6175;50.956;11.064;2023-10-08T13:18:50;7.20;;;5.65;;
12224;SDS011;6175;50.956;11.064;2023-10-08T13:21:17;14.57;;;9.48;;
12224;SDS011;6175;50.956;11.064;2023-10-08T13:23:44;13.75;;;7.97;;
12224;SDS011;6175;50.956;11.064;2023-10-08T13:26:15;6.70;;;3.50;;
12224;SDS011;6175;50.956;11.064;2023-10-08T13:28:43;9.38;;;5.70;;
12224;SDS011;6175;50.956;11.064;2023-10-08T13:31:10;6.13;;;3.60;;
12224;SDS011;6175;50.956;11.064;2023-10-08T13:33:38;12.45;;;8.18;;
12224;SDS011;6175;50.956;11.064;2023-10-08T13:36:07;3.35;;;2.60;;
12224;SDS011;6175;50.956;11.064;2023-10-08T13:38:34;2.13;;;1.80;;
12224;SDS011;6175;50.956;11.064;2023-10-08T13:41:02;4.38;;;3.38;;
12224;SDS011;6175;50.956;11.064;2023-10-08T13:43:33;2.20;;;2.00;;
12224;SDS011;6175;50.956;11.064;2023-10-08T13:46:01;2.08;;;1.70;;
12224;SDS011;6175;50.956;11.064;2023-10-08T13:48:31;2.70;;;1.25;;
12224;SDS011;6175;50.956;11.064;2023-10-08T13:50:59;1.90;;;1.30;;
12224;SDS011;6175;50.956;11.064;2023-10-08T13:53:26;2.72;;;1.17;;
12224;SDS011;6175;50.956;11.064;2023-10-08T13:55:56;1.30;;;1.08;;
12224;SDS011;6175;50.956;11.064;2023-10-08T13:58:23;1.90;;;1.05;;
12224;SDS011;6175;50.956;11.064;2023-10-08T14:00:51;2.15;;;1.65;;
12224;SDS011;6175;50.956;11.064;2023-10-08T14:03:19;1.88;;;1.30;;
12224;SDS011;6175;50.956;11.064;2023-10-08T14:05:47;2.38;;;1.65;;
12224;SDS011;6175;50.956;11.064;2023-10-08T14:08:16;2.15;;;1.55;;
12224;SDS011;6175;50.956;11.064;2023-10-08T14:10:44;2.33;;;1.40;;
12224;SDS011;6175;50.956;11.064;2023-10-08T14:13:13;1.35;;;1.20;;
12224;SDS011;6175;50.956;11.064;2023-10-08T14:15:44;1.50;;;1.27;;
12224;SDS011;6175;50.956;11.064;2023-10-08T14:18:15;1.33;;;1.23;;
12224;SDS011;6175;50.956;11.064;2023-10-08T14:20:43;1.63;;;1.40;;
12224;SDS011;6175;50.956;11.064;2023-10-08T14:23:12;1.90;;;1.70;;
12224;SDS011;6175;50.956;11.064;2023-10-08T14:25:41;2.45;;;1.63;;
12224;SDS011;6175;50.956;11.064;2023-10-08T14:28:10;1.63;;;1.50;;
12224;SDS011;6175;50.956;11.064;2023-10-08T14:30:47;1.92;;;1.30;;
12224;SDS011;6175;50.956;11.064;2023-10-08T14:33:20;1.55;;;1.40;;
12224;SDS011;6175;50.956;11.064;2023-10-08T14:35:52;2.25;;;1.48;;
12224;SDS011;6175;50.956;11.064;2023-10-08T14:38:37;2.28;;;1.25;;
12224;SDS011;6175;50.956;11.064;2023-10-08T14:41:21;2.00;;;1.30;;
12224;SDS011;6175;50.956;11.064;2023-10-08T14:44:06;1.73;;;1.42;;
12224;SDS011;6175;50.956;11.064;2023-10-08T14:46:33;1.73;;;1.40;;
12224;SDS011;6175;50.956;11.064;2023-10-08T14:49:05;1.42;;;1.33;;
12224;SDS011;6175;50.956;11.064;2023-10-08T14:51:36;1.83;;;1.30;;
12224;SDS011;6175;50.956;11.064;2023-10-08T14:54:04;2.10;;;1.23;;
12224;SDS011;6175;50.956;11.064;2023-10-08T14:56:32;1.83;;;1.33;;
12224;SDS011;6175;50.956;11.064;2023-10-08T14:59:00;1.67;;;1.40;;
12224;SDS011;6175;50.956;11.064;2023-10-08T15:01:27;2.63;;;1.70;;
12224;SDS011;6175;50.956;11.064;2023-10-08T15:03:54;2.50;;;1.80;;
12224;SDS011;6175;50.956;11.064;2023-10-08T15:06:23;1.88;;;1.55;;
12224;SDS011;6175;50.956;11.064;2023-10-08T15:08:51;2.85;;;1.83;;
12224;SDS011;6175;50.956;11.064;2023-10-08T15:11:18;1.50;;;1.40;;
12224;SDS011;6175;50.956;11.064;2023-10-08T15:13:45;2.03;;;1.60;;
12224;SDS011;6175;50.956;11.064;2023-10-08T15:16:14;1.77;;;1.25;;
12224;SDS011;6175;50.956;11.064;2023-10-08T15:18:43;2.53;;;1.75;;
12224;SDS011;6175;50.956;11.064;2023-10-08T15:21:10;2.33;;;1.48;;
12224;SDS011;6175;50.956;11.064;2023-10-08T15:23:39;2.17;;;1.38;;